createdAt,value
2019-03-09T00:02:17.353Z,9.34
2019-03-09T00:04:45.972Z,9.10
2019-03-09T00:07:14.659Z,8.88
2019-03-09T00:09:43.497Z,8.81
2019-03-09T00:12:12.094Z,8.82
2019-03-09T00:14:40.655Z,8.74
2019-03-09T00:17:09.340Z,8.73
2019-03-09T00:19:37.890Z,8.78
2019-03-09T00:22:06.525Z,8.77
2019-03-09T00:24:39.520Z,8.80
2019-03-09T00:27:29.886Z,8.72
2019-03-09T00:30:08.924Z,8.64
2019-03-09T00:32:37.520Z,8.62
2019-03-09T00:35:06.160Z,8.59
2019-03-09T00:37:34.703Z,8.49
2019-03-09T00:40:04.236Z,8.37
2019-03-09T00:42:32.793Z,8.29
2019-03-09T00:45:01.327Z,8.33
2019-03-09T00:47:29.957Z,8.28
2019-03-09T00:49:58.487Z,8.24
2019-03-09T00:52:27.117Z,8.09
2019-03-09T00:54:55.806Z,7.95
2019-03-09T00:57:24.516Z,7.91
2019-03-09T00:59:57.041Z,7.89
2019-03-09T01:02:25.820Z,7.95
2019-03-09T01:04:54.453Z,7.99
2019-03-09T01:07:22.955Z,8.00
2019-03-09T01:09:51.638Z,8.16
2019-03-09T01:12:20.311Z,8.23
2019-03-09T01:14:48.926Z,8.14
2019-03-09T01:17:17.519Z,8.07
2019-03-09T01:19:46.130Z,8.03
2019-03-09T01:22:14.760Z,8.08
2019-03-09T01:24:43.393Z,8.22
2019-03-09T01:27:12.080Z,8.32
2019-03-09T01:29:40.641Z,8.41
2019-03-09T01:32:09.318Z,8.53
2019-03-09T01:34:37.937Z,8.74
2019-03-09T01:37:06.610Z,8.88
2019-03-09T01:39:35.243Z,9.09
2019-03-09T01:42:03.974Z,8.98
2019-03-09T01:44:32.649Z,8.75
2019-03-09T01:47:01.214Z,8.71
2019-03-09T01:49:29.923Z,8.71
2019-03-09T01:51:58.470Z,8.76
2019-03-09T01:54:27.124Z,8.81
2019-03-09T01:56:55.790Z,8.98
2019-03-09T01:59:24.420Z,9.03
2019-03-09T02:01:53.092Z,9.06
2019-03-09T02:04:21.655Z,9.15
2019-03-09T02:06:50.259Z,9.35
2019-03-09T02:09:19.395Z,9.72
2019-03-09T02:11:48.069Z,10.21
2019-03-09T02:14:16.721Z,10.81
2019-03-09T02:16:45.327Z,11.36
2019-03-09T02:19:13.994Z,11.60
2019-03-09T02:21:42.627Z,11.33
2019-03-09T02:24:11.266Z,10.88
2019-03-09T02:26:39.947Z,10.70
2019-03-09T02:29:08.473Z,10.73
2019-03-09T02:31:37.158Z,10.91
2019-03-09T02:34:05.639Z,11.20
2019-03-09T02:36:34.199Z,11.34
2019-03-09T02:39:04.365Z,11.57
2019-03-09T02:41:32.918Z,11.84
2019-03-09T02:44:01.591Z,12.05
2019-03-09T02:46:30.180Z,12.15
2019-03-09T02:48:58.673Z,12.29
2019-03-09T02:51:27.284Z,12.39
2019-03-09T02:53:55.834Z,11.94
2019-03-09T02:56:24.390Z,11.50
2019-03-09T02:58:52.920Z,11.20
2019-03-09T03:01:23.165Z,11.24
2019-03-09T03:03:51.785Z,11.36
2019-03-09T03:06:20.449Z,11.74
2019-03-09T03:08:49.044Z,12.09
2019-03-09T03:11:17.593Z,12.25
2019-03-09T03:13:46.125Z,12.32
2019-03-09T03:16:14.675Z,12.20
2019-03-09T03:18:43.209Z,11.60
2019-03-09T03:21:11.776Z,11.25
2019-03-09T03:23:40.379Z,10.79
2019-03-09T03:26:08.938Z,10.63
2019-03-09T03:28:37.440Z,10.44
2019-03-09T03:31:06.187Z,10.32
2019-03-09T03:33:34.817Z,10.42
2019-03-09T03:36:03.448Z,10.89
2019-03-09T03:38:31.929Z,11.49
2019-03-09T03:41:00.550Z,11.91
2019-03-09T03:43:29.137Z,12.24
2019-03-09T03:45:57.774Z,12.50
2019-03-09T03:48:26.330Z,12.62
2019-03-09T03:50:55.003Z,12.68
2019-03-09T03:53:23.559Z,12.74
2019-03-09T03:55:52.184Z,12.74
2019-03-09T03:58:20.817Z,12.73
2019-03-09T04:00:49.545Z,12.73
2019-03-09T04:03:18.103Z,12.76
2019-03-09T04:05:47.207Z,12.75
2019-03-09T04:08:15.837Z,12.81
2019-03-09T04:10:44.462Z,12.83
2019-03-09T04:13:13.134Z,12.92
2019-03-09T04:15:41.750Z,12.94
2019-03-09T04:18:10.411Z,13.01
2019-03-09T04:20:39.043Z,13.06
2019-03-09T04:23:07.645Z,13.20
2019-03-09T04:25:36.314Z,13.28
2019-03-09T04:28:04.938Z,13.34
2019-03-09T04:30:33.603Z,13.34
2019-03-09T04:33:02.156Z,13.31
2019-03-09T04:35:30.769Z,13.28
2019-03-09T04:37:59.249Z,13.26
2019-03-09T04:40:27.809Z,13.17
2019-03-09T04:42:56.420Z,13.17
2019-03-09T04:45:24.972Z,13.12
2019-03-09T04:47:53.585Z,13.07
2019-03-09T04:50:22.179Z,13.09
2019-03-09T04:52:50.725Z,13.03
2019-03-09T04:55:19.283Z,13.01
2019-03-09T04:57:47.806Z,13.08
2019-03-09T05:00:16.721Z,13.04
2019-03-09T05:02:45.283Z,13.11
2019-03-09T05:05:13.925Z,13.02
2019-03-09T05:07:54.200Z,13.02
2019-03-09T05:10:34.490Z,13.00
2019-03-09T05:13:06.427Z,12.95
2019-03-09T05:15:34.976Z,12.89
2019-03-09T05:18:03.574Z,12.90
2019-03-09T05:20:32.057Z,12.88
2019-03-09T05:23:00.736Z,12.90
2019-03-09T05:25:29.285Z,12.92
2019-03-09T05:27:57.881Z,12.96
2019-03-09T05:30:37.869Z,12.94
2019-03-09T05:33:06.425Z,12.95
2019-03-09T05:35:35.051Z,13.06
2019-03-09T05:38:03.823Z,13.15
2019-03-09T05:40:32.446Z,13.14
2019-03-09T05:43:01.075Z,13.12
2019-03-09T05:45:29.742Z,13.16
2019-03-09T05:47:58.288Z,13.25
2019-03-09T05:50:27.004Z,13.26
2019-03-09T05:53:07.044Z,13.26
2019-03-09T05:55:35.681Z,13.30
2019-03-09T05:58:04.359Z,13.43
2019-03-09T06:00:34.149Z,13.55
2019-03-09T06:03:02.736Z,13.67
2019-03-09T06:05:33.576Z,13.83
2019-03-09T06:08:05.292Z,13.98
2019-03-09T06:10:33.961Z,14.06
2019-03-09T06:13:02.509Z,14.14
2019-03-09T06:15:31.181Z,14.29
2019-03-09T06:17:59.797Z,14.40
2019-03-09T06:20:28.394Z,14.54
2019-03-09T06:22:57.064Z,14.70
2019-03-09T06:25:25.743Z,14.87
2019-03-09T06:27:54.294Z,15.42
2019-03-09T06:30:25.657Z,15.79
2019-03-09T06:33:23.779Z,15.88
2019-03-09T06:35:55.913Z,15.97
2019-03-09T06:38:42.655Z,16.06
2019-03-09T06:41:17.240Z,16.28
2019-03-09T06:43:45.840Z,16.26
2019-03-09T06:46:14.470Z,16.66
2019-03-09T06:48:42.997Z,16.62
2019-03-09T06:51:11.480Z,17.08
2019-03-09T06:53:40.146Z,16.56
2019-03-09T06:56:08.704Z,16.56
2019-03-09T06:58:37.268Z,17.28
2019-03-09T07:01:22.758Z,17.64
2019-03-09T07:03:51.364Z,18.37
2019-03-09T07:06:20.018Z,19.00
2019-03-09T07:08:48.537Z,19.18
2019-03-09T07:11:17.159Z,19.62
2019-03-09T07:13:52.735Z,20.03
2019-03-09T07:16:16.739Z,19.85
2019-03-09T07:18:45.323Z,20.03
2019-03-09T07:21:13.923Z,20.13
2019-03-09T07:23:42.413Z,21.04
2019-03-09T07:26:10.972Z,21.27
2019-03-09T07:28:39.529Z,21.42
2019-03-09T07:31:08.192Z,21.10
2019-03-09T07:33:36.867Z,20.35
2019-03-09T07:36:05.494Z,20.41
2019-03-09T07:38:34.056Z,20.93
2019-03-09T07:41:02.605Z,21.69
2019-03-09T07:43:31.206Z,22.22
2019-03-09T07:45:59.764Z,22.93
2019-03-09T07:48:28.362Z,22.67
2019-03-09T07:50:56.988Z,21.94
2019-03-09T07:53:25.619Z,22.37
2019-03-09T07:55:54.253Z,23.19
2019-03-09T07:58:22.798Z,23.63
2019-03-09T08:00:51.471Z,24.20
2019-03-09T08:03:20.097Z,24.55
2019-03-09T08:05:48.763Z,24.54
2019-03-09T08:08:17.323Z,24.43
2019-03-09T08:10:45.985Z,24.83
2019-03-09T08:13:14.915Z,24.98
2019-03-09T08:15:43.465Z,24.55
2019-03-09T08:18:12.066Z,24.97
2019-03-09T08:20:40.706Z,25.80
2019-03-09T08:23:09.352Z,26.50
2019-03-09T08:25:37.837Z,27.01
2019-03-09T08:28:06.451Z,27.56
2019-03-09T08:30:35.067Z,27.49
2019-03-09T08:33:03.664Z,27.00
2019-03-09T08:35:32.312Z,26.64
2019-03-09T08:38:00.907Z,27.09
2019-03-09T08:40:29.451Z,27.02
2019-03-09T08:42:58.143Z,27.16
2019-03-09T08:45:26.745Z,27.58
2019-03-09T08:47:55.388Z,28.03
2019-03-09T08:50:24.062Z,28.62
2019-03-09T08:52:52.692Z,28.24
2019-03-09T08:55:21.280Z,27.85
2019-03-09T08:57:49.744Z,27.86
2019-03-09T09:00:21.258Z,28.17
2019-03-09T09:02:49.794Z,28.07
2019-03-09T09:05:18.466Z,29.43
2019-03-09T09:07:47.091Z,30.70
2019-03-09T09:10:15.701Z,30.35
2019-03-09T09:12:45.498Z,30.88
2019-03-09T09:15:16.290Z,31.68
2019-03-09T09:17:45.003Z,30.70
2019-03-09T09:20:19.413Z,30.87
2019-03-09T09:22:47.964Z,30.64
2019-03-09T09:25:16.582Z,30.84
2019-03-09T09:27:47.964Z,30.53
2019-03-09T09:30:22.072Z,30.75
2019-03-09T09:32:53.441Z,31.38
2019-03-09T09:35:22.362Z,30.88
2019-03-09T09:37:51.658Z,30.76
2019-03-09T09:40:27.235Z,30.66
2019-03-09T09:42:55.968Z,30.03
2019-03-09T09:45:24.610Z,30.63
2019-03-09T09:47:53.271Z,30.92
2019-03-09T09:50:21.948Z,31.14
2019-03-09T09:52:50.645Z,32.27
2019-03-09T09:55:20.081Z,31.82
2019-03-09T09:57:48.697Z,32.20
2019-03-09T10:00:19.485Z,33.11
2019-03-09T10:02:48.013Z,34.22
2019-03-09T10:05:16.654Z,34.85
2019-03-09T10:07:45.320Z,33.89
2019-03-09T10:10:16.291Z,33.85
2019-03-09T10:12:44.963Z,34.29
2019-03-09T10:15:15.940Z,34.56
2019-03-09T10:17:44.553Z,34.66
2019-03-09T10:20:13.973Z,35.43
2019-03-09T10:22:42.631Z,35.51
2019-03-09T10:25:11.595Z,35.73
2019-03-09T10:27:41.470Z,35.47
2019-03-09T10:30:20.749Z,35.89
2019-03-09T10:32:49.443Z,36.72
2019-03-09T10:35:18.098Z,36.83
2019-03-09T10:37:46.947Z,38.03
2019-03-09T10:40:16.162Z,38.45
2019-03-09T10:42:44.944Z,37.04
2019-03-09T10:45:21.197Z,37.66
2019-03-09T10:47:50.669Z,38.25
2019-03-09T10:50:20.202Z,39.09
2019-03-09T10:52:49.044Z,39.44
2019-03-09T10:55:22.766Z,40.08
2019-03-09T10:57:51.507Z,38.80
2019-03-09T11:00:31.278Z,38.58
2019-03-09T11:02:59.941Z,38.53
2019-03-09T11:05:28.560Z,38.34
2019-03-09T11:07:57.173Z,38.95
2019-03-09T11:10:25.849Z,39.73
2019-03-09T11:12:54.474Z,38.67
2019-03-09T11:15:23.156Z,38.52
2019-03-09T11:17:51.822Z,39.11
2019-03-09T11:20:21.590Z,39.15
2019-03-09T11:22:50.215Z,40.05
2019-03-09T11:25:18.877Z,40.00
2019-03-09T11:27:47.429Z,39.52
2019-03-09T11:30:21.183Z,39.95
2019-03-09T11:32:49.829Z,39.92
2019-03-09T11:35:18.482Z,39.58
2019-03-09T11:37:47.150Z,40.49
2019-03-09T11:40:15.784Z,42.47
2019-03-09T11:42:44.426Z,40.52
2019-03-09T11:45:16.001Z,39.87
2019-03-09T11:47:44.668Z,39.37
2019-03-09T11:50:15.608Z,39.46
2019-03-09T11:52:44.371Z,38.59
2019-03-09T11:55:14.749Z,38.70
2019-03-09T11:57:43.381Z,38.74
2019-03-09T12:00:18.937Z,37.87
2019-03-09T12:02:47.569Z,38.25
2019-03-09T12:05:16.208Z,38.19
2019-03-09T12:07:44.834Z,37.19
2019-03-09T12:10:13.715Z,37.01
2019-03-09T12:12:44.857Z,37.23
2019-03-09T12:15:14.981Z,37.68
2019-03-09T12:17:43.649Z,38.49
2019-03-09T12:20:14.587Z,39.34
2019-03-09T12:22:43.251Z,38.60
2019-03-09T12:25:13.980Z,38.68
2019-03-09T12:27:42.751Z,37.83
2019-03-09T12:30:14.261Z,36.90
2019-03-09T12:32:42.935Z,36.17
2019-03-09T12:35:11.571Z,38.75
2019-03-09T12:37:40.198Z,38.48
2019-03-09T12:40:15.049Z,39.61
2019-03-09T12:42:43.678Z,40.08
2019-03-09T12:45:12.908Z,39.03
2019-03-09T12:47:41.549Z,39.08
2019-03-09T12:50:24.177Z,37.68
2019-03-09T12:52:52.776Z,37.66
2019-03-09T12:55:21.459Z,37.09
2019-03-09T12:57:50.120Z,36.77
2019-03-09T13:00:20.006Z,37.51
2019-03-09T13:02:48.771Z,38.54
2019-03-09T13:05:18.201Z,39.41
2019-03-09T13:07:46.888Z,39.72
2019-03-09T13:10:16.517Z,39.24
2019-03-09T13:12:45.347Z,39.71
2019-03-09T13:15:15.116Z,39.11
2019-03-09T13:17:44.077Z,38.73
2019-03-09T13:20:16.824Z,36.74
2019-03-09T13:22:45.499Z,36.74
2019-03-09T13:25:14.729Z,37.69
2019-03-09T13:27:43.434Z,37.25
2019-03-09T13:30:22.628Z,37.36
2019-03-09T13:32:51.308Z,36.99
2019-03-09T13:35:19.933Z,38.71
2019-03-09T13:37:48.607Z,39.74
2019-03-09T13:40:17.533Z,39.96
2019-03-09T13:42:46.124Z,39.38
2019-03-09T13:45:16.056Z,37.52
2019-03-09T13:47:44.676Z,36.57
2019-03-09T13:50:14.659Z,36.98
2019-03-09T13:52:43.357Z,35.83
2019-03-09T13:55:12.722Z,35.11
2019-03-09T13:57:44.341Z,34.26
2019-03-09T14:00:19.650Z,32.27
2019-03-09T14:02:48.372Z,30.16
2019-03-09T14:05:16.994Z,28.79
2019-03-09T14:07:45.671Z,27.65
2019-03-09T14:10:17.673Z,27.34
2019-03-09T14:12:46.225Z,26.94
2019-03-09T14:15:16.070Z,26.18
2019-03-09T14:17:44.767Z,25.46
2019-03-09T14:20:15.289Z,25.08
2019-03-09T14:22:43.968Z,24.68
2019-03-09T14:25:14.689Z,24.43
2019-03-09T14:27:43.336Z,24.53
2019-03-09T14:30:16.605Z,24.63
2019-03-09T14:32:45.275Z,24.73
2019-03-09T14:35:13.995Z,24.92
2019-03-09T14:37:42.683Z,25.14
2019-03-09T14:40:13.941Z,25.13
2019-03-09T14:42:42.593Z,24.86
2019-03-09T14:45:16.267Z,24.54
2019-03-09T14:47:44.939Z,22.84
2019-03-09T14:50:13.907Z,21.71
2019-03-09T14:52:42.642Z,21.87
2019-03-09T14:55:12.380Z,22.04
2019-03-09T14:57:43.749Z,22.10
2019-03-09T15:00:17.744Z,22.11
2019-03-09T15:02:46.296Z,22.15
2019-03-09T15:05:15.062Z,22.11
2019-03-09T15:07:43.696Z,21.98
2019-03-09T15:10:13.221Z,21.63
2019-03-09T15:12:41.823Z,21.38
2019-03-09T15:15:15.706Z,20.80
2019-03-09T15:17:44.336Z,20.03
2019-03-09T15:20:15.173Z,19.39
2019-03-09T15:22:43.853Z,19.51
2019-03-09T15:25:15.020Z,19.51
2019-03-09T15:27:43.646Z,19.67
2019-03-09T15:30:17.054Z,19.92
2019-03-09T15:32:45.672Z,20.17
2019-03-09T15:35:16.000Z,20.57
2019-03-09T15:37:44.609Z,20.78
2019-03-09T15:40:17.262Z,20.81
2019-03-09T15:42:46.195Z,20.86
2019-03-09T15:45:20.914Z,20.98
2019-03-09T15:47:49.685Z,21.35
2019-03-09T15:50:22.492Z,22.06
2019-03-09T15:52:51.135Z,22.64
2019-03-09T15:55:19.778Z,22.99
2019-03-09T15:57:48.412Z,23.10
2019-03-09T16:00:23.861Z,22.91
2019-03-09T16:02:53.529Z,22.84
2019-03-09T16:05:22.153Z,22.68
2019-03-09T16:07:50.850Z,22.40
2019-03-09T16:10:20.570Z,22.07
2019-03-09T16:12:49.250Z,21.77
2019-03-09T16:15:18.327Z,21.31
2019-03-09T16:17:47.054Z,20.61
2019-03-09T16:20:21.264Z,20.10
2019-03-09T16:22:49.930Z,20.00
2019-03-09T16:25:18.606Z,19.71
2019-03-09T16:27:47.240Z,19.47
2019-03-09T16:30:18.759Z,19.28
2019-03-09T16:32:47.440Z,19.23
2019-03-09T16:35:16.071Z,18.96
2019-03-09T16:37:45.819Z,18.77
2019-03-09T16:40:16.188Z,18.60
2019-03-09T16:42:44.825Z,18.51
2019-03-09T16:45:14.199Z,18.48
2019-03-09T16:47:45.606Z,18.28
2019-03-09T16:50:17.157Z,18.25
2019-03-09T16:52:45.828Z,18.08
2019-03-09T16:55:14.656Z,17.96
2019-03-09T16:57:43.342Z,17.83
2019-03-09T17:00:22.838Z,17.73
2019-03-09T17:02:51.527Z,17.72
2019-03-09T17:05:20.154Z,17.74
2019-03-09T17:07:48.793Z,17.76
2019-03-09T17:10:19.349Z,17.79
2019-03-09T17:12:48.276Z,17.72
2019-03-09T17:15:21.317Z,17.79
2019-03-09T17:17:49.908Z,17.75
2019-03-09T17:20:18.930Z,17.64
2019-03-09T17:22:47.628Z,17.45
2019-03-09T17:25:16.332Z,16.58
2019-03-09T17:27:45.022Z,16.40
2019-03-09T17:30:18.960Z,16.39
2019-03-09T17:32:50.593Z,16.25
2019-03-09T17:35:19.224Z,15.98
2019-03-09T17:37:47.864Z,15.61
2019-03-09T17:40:17.407Z,15.17
2019-03-09T17:42:46.035Z,15.22
2019-03-09T17:45:22.420Z,14.95
2019-03-09T17:47:51.056Z,15.04
2019-03-09T17:50:19.733Z,14.95
2019-03-09T17:52:48.295Z,14.89
2019-03-09T17:55:16.927Z,15.19
2019-03-09T17:57:45.609Z,15.36
2019-03-09T18:00:26.099Z,15.48
2019-03-09T18:02:54.770Z,15.46
2019-03-09T18:05:23.377Z,15.37
2019-03-09T18:07:52.003Z,15.42
2019-03-09T18:10:43.298Z,15.45
2019-03-09T18:13:11.913Z,15.46
2019-03-09T18:15:40.484Z,15.60
2019-03-09T18:18:09.097Z,15.63
2019-03-09T18:20:37.816Z,15.89
2019-03-09T18:23:06.496Z,15.98
2019-03-09T18:25:35.160Z,16.03
2019-03-09T18:28:03.830Z,16.13
2019-03-09T18:30:32.464Z,16.17
2019-03-09T18:33:01.060Z,16.11
2019-03-09T18:35:32.512Z,15.93
2019-03-09T18:38:01.114Z,15.62
2019-03-09T18:40:29.743Z,15.33
2019-03-09T18:42:58.419Z,15.11
2019-03-09T18:45:26.953Z,15.02
2019-03-09T18:47:55.582Z,14.98
2019-03-09T18:50:24.144Z,15.01
2019-03-09T18:52:52.706Z,15.19
2019-03-09T18:55:21.370Z,15.47
2019-03-09T18:57:50.016Z,15.72
2019-03-09T19:00:19.695Z,15.86
2019-03-09T19:02:48.367Z,15.85
2019-03-09T19:05:16.998Z,15.61
2019-03-09T19:07:45.666Z,15.36
2019-03-09T19:10:22.309Z,15.13
2019-03-09T19:12:50.993Z,14.92
2019-03-09T19:15:19.815Z,14.82
2019-03-09T19:17:48.439Z,14.91
2019-03-09T19:20:20.780Z,15.06
2019-03-09T19:22:49.444Z,15.28
2019-03-09T19:25:18.073Z,15.55
2019-03-09T19:27:46.745Z,15.62
2019-03-09T19:30:20.042Z,15.65
2019-03-09T19:32:48.596Z,15.67
2019-03-09T19:35:17.226Z,15.61
2019-03-09T19:37:45.887Z,15.58
2019-03-09T19:40:20.276Z,15.40
2019-03-09T19:42:49.009Z,15.18
2019-03-09T19:45:18.625Z,15.04
2019-03-09T19:47:47.271Z,14.92
2019-03-09T19:50:22.586Z,14.91
2019-03-09T19:52:51.172Z,14.86
2019-03-09T19:55:19.794Z,14.68
2019-03-09T19:57:48.379Z,14.59
2019-03-09T20:00:22.950Z,14.68
2019-03-09T20:02:51.627Z,14.74
2019-03-09T20:05:20.189Z,14.64
2019-03-09T20:07:48.823Z,14.33
2019-03-09T20:10:20.424Z,13.73
2019-03-09T20:12:49.148Z,13.79
2019-03-09T20:15:19.703Z,13.63
2019-03-09T20:17:48.251Z,13.47
2019-03-09T20:20:23.406Z,13.37
2019-03-09T20:22:52.014Z,13.16
2019-03-09T20:25:20.690Z,13.03
2019-03-09T20:27:49.291Z,12.98
2019-03-09T20:30:19.139Z,12.99
2019-03-09T20:32:50.491Z,13.00
2019-03-09T20:35:19.123Z,13.12
2019-03-09T20:37:47.695Z,13.08
2019-03-09T20:40:18.131Z,12.85
2019-03-09T20:42:46.716Z,12.45
2019-03-09T20:45:17.490Z,12.22
2019-03-09T20:47:46.107Z,12.10
2019-03-09T20:50:17.655Z,12.01
2019-03-09T20:52:46.151Z,11.66
2019-03-09T20:55:14.811Z,11.83
2019-03-09T20:57:43.469Z,11.81
2019-03-09T21:00:20.025Z,11.76
2019-03-09T21:02:48.677Z,11.44
2019-03-09T21:05:17.387Z,11.28
2019-03-09T21:07:46.011Z,11.05
2019-03-09T21:10:21.028Z,10.91
2019-03-09T21:12:57.897Z,11.09
2019-03-09T21:15:26.558Z,11.03
2019-03-09T21:17:55.190Z,10.98
2019-03-09T21:20:23.803Z,10.86
2019-03-09T21:22:52.430Z,11.04
2019-03-09T21:25:21.058Z,11.35
2019-03-09T21:27:49.750Z,11.55
2019-03-09T21:30:18.405Z,11.43
2019-03-09T21:32:47.045Z,11.56
2019-03-09T21:35:15.681Z,11.92
2019-03-09T21:37:44.211Z,11.97
2019-03-09T21:40:12.837Z,11.98
2019-03-09T21:42:41.467Z,11.96
2019-03-09T21:45:12.256Z,11.93
2019-03-09T21:47:40.823Z,12.01
2019-03-09T21:50:13.561Z,12.22
2019-03-09T21:52:42.233Z,12.37
2019-03-09T21:55:12.627Z,12.50
2019-03-09T21:57:41.181Z,12.66
2019-03-09T22:00:14.661Z,12.80
2019-03-09T22:02:43.338Z,13.01
2019-03-09T22:05:12.919Z,13.05
2019-03-09T22:07:41.538Z,13.20
2019-03-09T22:10:11.505Z,13.38
2019-03-09T22:12:40.133Z,13.46
2019-03-09T22:15:18.896Z,13.42
2019-03-09T22:17:47.525Z,13.45
2019-03-09T22:20:16.167Z,13.44
2019-03-09T22:22:45.132Z,13.45
2019-03-09T22:25:14.758Z,13.51
2019-03-09T22:27:43.446Z,13.59
2019-03-09T22:30:14.705Z,13.66
2019-03-09T22:32:43.388Z,13.67
2019-03-09T22:35:13.314Z,13.61
2019-03-09T22:37:41.955Z,13.31
2019-03-09T22:40:12.382Z,13.27
2019-03-09T22:42:41.023Z,13.28
2019-03-09T22:45:14.283Z,13.27
2019-03-09T22:47:42.907Z,13.16
2019-03-09T22:50:19.794Z,13.11
2019-03-09T22:52:48.421Z,13.08
2019-03-09T22:55:17.195Z,13.00
2019-03-09T22:57:45.837Z,13.06
2019-03-09T23:00:24.417Z,12.99
2019-03-09T23:02:53.050Z,12.98
2019-03-09T23:05:21.683Z,12.88
2019-03-09T23:07:50.306Z,12.86
2019-03-09T23:10:23.059Z,12.77
2019-03-09T23:12:51.676Z,12.73
2019-03-09T23:15:20.462Z,12.83
2019-03-09T23:17:49.065Z,12.95
2019-03-09T23:20:17.842Z,12.91
2019-03-09T23:22:46.390Z,12.91
2019-03-09T23:25:15.857Z,12.93
2019-03-09T23:27:44.399Z,12.90
2019-03-09T23:30:20.669Z,13.03
2019-03-09T23:32:49.341Z,13.06
2019-03-09T23:35:17.949Z,13.01
2019-03-09T23:37:47.879Z,12.97
2019-03-09T23:40:17.945Z,12.92
2019-03-09T23:42:46.615Z,12.87
2019-03-09T23:45:23.112Z,12.93
2019-03-09T23:47:51.986Z,12.89
2019-03-09T23:50:20.750Z,12.94
2019-03-09T23:52:49.782Z,12.89
2019-03-09T23:55:22.409Z,12.84
2019-03-09T23:57:49.542Z,12.83
